sensor_id;sensor_type;location;lat;lon;timestamp;noise_LAeq;noise_LA_min;noise_LA_max;noise_LA01;noise_LA95
4048;Laerm;2038;51.728;6.674;2022-07-15T00:01:16;39.07;33.90;43.49;;
4048;Laerm;2038;51.728;6.674;2022-07-15T00:03:42;44.36;34.31;58.99;;
4048;Laerm;2038;51.728;6.674;2022-07-15T00:06:08;38.56;34.69;41.61;;
4048;Laerm;2038;51.728;6.674;2022-07-15T00:08:35;49.02;34.31;67.54;;
4048;Laerm;2038;51.728;6.674;2022-07-15T00:11:01;38.15;33.90;40.98;;
4048;Laerm;2038;51.728;6.674;2022-07-15T00:13:27;38.26;33.44;40.89;;
4048;Laerm;2038;51.728;6.674;2022-07-15T00:15:54;38.70;33.44;41.53;;
4048;Laerm;2038;51.728;6.674;2022-07-15T00:18:20;38.92;34.69;41.75;;
4048;Laerm;2038;51.728;6.674;2022-07-15T00:20:47;38.45;34.69;45.75;;
4048;Laerm;2038;51.728;6.674;2022-07-15T00:23:13;38.26;33.90;51.20;;
4048;Laerm;2038;51.728;6.674;2022-07-15T00:25:39;38.64;33.90;59.81;;
4048;Laerm;2038;51.728;6.674;2022-07-15T00:28:07;39.05;34.31;42.65;;
4048;Laerm;2038;51.728;6.674;2022-07-15T00:30:42;39.00;34.31;42.76;;
4048;Laerm;2038;51.728;6.674;2022-07-15T00:33:09;38.19;34.31;41.68;;
4048;Laerm;2038;51.728;6.674;2022-07-15T00:35:37;52.34;34.69;68.26;;
4048;Laerm;2038;51.728;6.674;2022-07-15T00:38:08;39.18;33.44;49.11;;
4048;Laerm;2038;51.728;6.674;2022-07-15T00:40:47;38.03;33.90;40.71;;
4048;Laerm;2038;51.728;6.674;2022-07-15T00:43:15;38.20;33.44;41.46;;
4048;Laerm;2038;51.728;6.674;2022-07-15T00:45:45;38.53;32.35;42.76;;
4048;Laerm;2038;51.728;6.674;2022-07-15T00:48:12;38.05;33.90;41.14;;
4048;Laerm;2038;51.728;6.674;2022-07-15T00:50:38;38.03;33.44;48.42;;
4048;Laerm;2038;51.728;6.674;2022-07-15T00:53:18;39.10;33.90;42.41;;
4048;Laerm;2038;51.728;6.674;2022-07-15T00:55:47;38.44;33.90;41.96;;
4048;Laerm;2038;51.728;6.674;2022-07-15T00:58:18;42.04;33.90;45.17;;
4048;Laerm;2038;51.728;6.674;2022-07-15T01:00:46;38.78;32.93;42.93;;
4048;Laerm;2038;51.728;6.674;2022-07-15T01:03:16;38.22;33.44;41.14;;
4048;Laerm;2038;51.728;6.674;2022-07-15T01:05:45;38.15;33.90;40.89;;
4048;Laerm;2038;51.728;6.674;2022-07-15T01:08:13;38.51;34.31;42.35;;
4048;Laerm;2038;51.728;6.674;2022-07-15T01:10:40;39.56;34.69;43.97;;
4048;Laerm;2038;51.728;6.674;2022-07-15T01:13:07;44.82;34.31;59.73;;
4048;Laerm;2038;51.728;6.674;2022-07-15T01:15:33;37.90;33.90;40.80;;
4048;Laerm;2038;51.728;6.674;2022-07-15T01:18:02;44.20;33.44;60.44;;
4048;Laerm;2038;51.728;6.674;2022-07-15T01:20:30;50.51;34.31;67.19;;
4048;Laerm;2038;51.728;6.674;2022-07-15T01:22:57;38.05;33.44;41.55;;
4048;Laerm;2038;51.728;6.674;2022-07-15T01:25:26;43.45;34.31;59.54;;
4048;Laerm;2038;51.728;6.674;2022-07-15T01:27:53;39.60;34.69;43.04;;
4048;Laerm;2038;51.728;6.674;2022-07-15T01:30:19;38.53;33.90;41.75;;
4048;Laerm;2038;51.728;6.674;2022-07-15T01:32:45;39.39;34.31;44.69;;
4048;Laerm;2038;51.728;6.674;2022-07-15T01:35:12;41.92;35.04;53.05;;
4048;Laerm;2038;51.728;6.674;2022-07-15T01:37:38;39.04;34.31;44.23;;
4048;Laerm;2038;51.728;6.674;2022-07-15T01:40:06;39.97;35.04;48.15;;
4048;Laerm;2038;51.728;6.674;2022-07-15T01:42:33;49.04;34.69;65.66;;
4048;Laerm;2038;51.728;6.674;2022-07-15T01:44:59;40.51;34.31;49.40;;
4048;Laerm;2038;51.728;6.674;2022-07-15T01:47:26;48.77;34.31;64.48;;
4048;Laerm;2038;51.728;6.674;2022-07-15T01:49:52;37.89;33.44;40.62;;
4048;Laerm;2038;51.728;6.674;2022-07-15T01:52:18;38.14;33.90;42.71;;
4048;Laerm;2038;51.728;6.674;2022-07-15T01:54:45;38.41;34.31;42.09;;
4048;Laerm;2038;51.728;6.674;2022-07-15T01:57:11;47.83;33.44;64.27;;
4048;Laerm;2038;51.728;6.674;2022-07-15T01:59:38;37.85;32.93;41.53;;
4048;Laerm;2038;51.728;6.674;2022-07-15T02:02:04;38.56;33.90;42.41;;
4048;Laerm;2038;51.728;6.674;2022-07-15T02:04:30;38.17;34.31;40.98;;
4048;Laerm;2038;51.728;6.674;2022-07-15T02:06:56;50.67;34.31;66.04;;
4048;Laerm;2038;51.728;6.674;2022-07-15T02:09:23;38.44;33.90;43.58;;
4048;Laerm;2038;51.728;6.674;2022-07-15T02:11:49;48.32;33.90;63.57;;
4048;Laerm;2038;51.728;6.674;2022-07-15T02:14:16;41.77;33.90;60.36;;
4048;Laerm;2038;51.728;6.674;2022-07-15T02:16:43;48.31;34.69;64.57;;
4048;Laerm;2038;51.728;6.674;2022-07-15T02:19:09;39.06;34.31;42.35;;
4048;Laerm;2038;51.728;6.674;2022-07-15T02:21:36;50.35;35.36;64.64;;
4048;Laerm;2038;51.728;6.674;2022-07-15T02:24:03;43.78;34.31;64.75;;
4048;Laerm;2038;51.728;6.674;2022-07-15T02:26:29;38.82;34.69;41.89;;
4048;Laerm;2038;51.728;6.674;2022-07-15T02:28:56;39.91;35.94;45.48;;
4048;Laerm;2038;51.728;6.674;2022-07-15T02:31:22;38.90;34.31;44.03;;
4048;Laerm;2038;51.728;6.674;2022-07-15T02:33:48;39.15;33.90;45.91;;
4048;Laerm;2038;51.728;6.674;2022-07-15T02:36:14;39.37;35.36;43.24;;
4048;Laerm;2038;51.728;6.674;2022-07-15T02:38:41;47.85;35.66;64.80;;
4048;Laerm;2038;51.728;6.674;2022-07-15T02:41:08;38.95;35.04;43.68;;
4048;Laerm;2038;51.728;6.674;2022-07-15T02:43:34;43.64;34.69;59.47;;
4048;Laerm;2038;51.728;6.674;2022-07-15T02:46:02;45.10;35.36;62.46;;
4048;Laerm;2038;51.728;6.674;2022-07-15T02:48:28;52.68;37.88;67.21;;
4048;Laerm;2038;51.728;6.674;2022-07-15T02:50:53;56.10;36.20;75.29;;
4048;Laerm;2038;51.728;6.674;2022-07-15T02:53:19;52.35;36.45;67.20;;
4048;Laerm;2038;51.728;6.674;2022-07-15T02:55:48;40.68;35.36;53.22;;
4048;Laerm;2038;51.728;6.674;2022-07-15T02:58:14;42.14;35.66;60.06;;
4048;Laerm;2038;51.728;6.674;2022-07-15T03:00:40;55.70;35.36;72.53;;
4048;Laerm;2038;51.728;6.674;2022-07-15T03:03:06;52.52;35.66;67.56;;
4048;Laerm;2038;51.728;6.674;2022-07-15T03:05:32;47.32;36.69;62.95;;
4048;Laerm;2038;51.728;6.674;2022-07-15T03:07:58;53.33;37.70;69.37;;
4048;Laerm;2038;51.728;6.674;2022-07-15T03:10:24;53.82;38.81;69.25;;
4048;Laerm;2038;51.728;6.674;2022-07-15T03:12:50;42.12;36.77;49.23;;
4048;Laerm;2038;51.728;6.674;2022-07-15T03:15:16;52.64;37.88;68.76;;
4048;Laerm;2038;51.728;6.674;2022-07-15T03:17:43;41.06;37.12;53.48;;
4048;Laerm;2038;51.728;6.674;2022-07-15T03:20:10;50.29;38.05;67.07;;
4048;Laerm;2038;51.728;6.674;2022-07-15T03:22:37;42.63;37.88;59.56;;
4048;Laerm;2038;51.728;6.674;2022-07-15T03:25:04;52.94;39.34;66.27;;
4048;Laerm;2038;51.728;6.674;2022-07-15T03:27:30;51.70;38.05;67.86;;
4048;Laerm;2038;51.728;6.674;2022-07-15T03:29:57;51.18;39.46;66.27;;
4048;Laerm;2038;51.728;6.674;2022-07-15T03:32:23;47.91;37.52;63.88;;
4048;Laerm;2038;51.728;6.674;2022-07-15T03:34:49;48.43;38.81;63.90;;
4048;Laerm;2038;51.728;6.674;2022-07-15T03:37:16;50.75;37.52;62.50;;
4048;Laerm;2038;51.728;6.674;2022-07-15T03:39:43;56.10;37.70;71.76;;
4048;Laerm;2038;51.728;6.674;2022-07-15T03:42:10;55.64;40.33;71.80;;
4048;Laerm;2038;51.728;6.674;2022-07-15T03:44:36;50.04;38.67;64.32;;
4048;Laerm;2038;51.728;6.674;2022-07-15T03:47:02;47.02;40.08;61.47;;
4048;Laerm;2038;51.728;6.674;2022-07-15T03:49:28;54.93;39.08;70.68;;
4048;Laerm;2038;51.728;6.674;2022-07-15T03:51:55;52.75;39.08;67.00;;
4048;Laerm;2038;51.728;6.674;2022-07-15T03:54:21;50.12;38.37;63.26;;
4048;Laerm;2038;51.728;6.674;2022-07-15T03:56:47;40.83;37.32;47.48;;
4048;Laerm;2038;51.728;6.674;2022-07-15T03:59:17;49.17;37.88;64.89;;
4048;Laerm;2038;51.728;6.674;2022-07-15T04:01:44;53.13;38.37;67.96;;
4048;Laerm;2038;51.728;6.674;2022-07-15T04:04:10;50.95;38.52;63.51;;
4048;Laerm;2038;51.728;6.674;2022-07-15T04:06:37;49.76;39.81;65.05;;
4048;Laerm;2038;51.728;6.674;2022-07-15T04:09:03;56.11;39.21;73.36;;
4048;Laerm;2038;51.728;6.674;2022-07-15T04:11:30;59.63;40.53;80.65;;
4048;Laerm;2038;51.728;6.674;2022-07-15T04:13:56;55.85;39.34;69.06;;
4048;Laerm;2038;51.728;6.674;2022-07-15T04:16:22;50.47;38.37;62.16;;
4048;Laerm;2038;51.728;6.674;2022-07-15T04:18:49;54.01;39.81;68.01;;
4048;Laerm;2038;51.728;6.674;2022-07-15T04:21:17;53.22;40.53;69.55;;
4048;Laerm;2038;51.728;6.674;2022-07-15T04:23:44;54.44;40.33;68.48;;
4048;Laerm;2038;51.728;6.674;2022-07-15T04:26:10;60.36;40.33;79.47;;
4048;Laerm;2038;51.728;6.674;2022-07-15T04:28:37;50.06;39.11;65.68;;
4048;Laerm;2038;51.728;6.674;2022-07-15T04:31:03;53.84;39.08;68.23;;
4048;Laerm;2038;51.728;6.674;2022-07-15T04:33:29;54.14;40.13;69.34;;
4048;Laerm;2038;51.728;6.674;2022-07-15T04:35:55;55.23;41.14;67.42;;
4048;Laerm;2038;51.728;6.674;2022-07-15T04:38:22;59.46;40.98;73.56;;
4048;Laerm;2038;51.728;6.674;2022-07-15T04:40:48;57.16;41.22;74.62;;
4048;Laerm;2038;51.728;6.674;2022-07-15T04:43:15;60.28;40.98;75.51;;
4048;Laerm;2038;51.728;6.674;2022-07-15T04:45:41;57.93;40.80;73.39;;
4048;Laerm;2038;51.728;6.674;2022-07-15T04:48:07;56.08;38.81;71.02;;
4048;Laerm;2038;51.728;6.674;2022-07-15T04:50:53;53.22;40.03;68.73;;
4048;Laerm;2038;51.728;6.674;2022-07-15T04:53:21;58.44;40.33;73.51;;
4048;Laerm;2038;51.728;6.674;2022-07-15T04:55:48;48.62;39.34;64.43;;
4048;Laerm;2038;51.728;6.674;2022-07-15T04:58:15;54.82;40.23;70.29;;
4048;Laerm;2038;51.728;6.674;2022-07-15T05:00:46;52.08;38.37;64.36;;
4048;Laerm;2038;51.728;6.674;2022-07-15T05:03:13;46.72;38.37;62.33;;
4048;Laerm;2038;51.728;6.674;2022-07-15T05:05:40;51.76;38.37;67.54;;
4048;Laerm;2038;51.728;6.674;2022-07-15T05:08:06;51.35;39.46;66.27;;
4048;Laerm;2038;51.728;6.674;2022-07-15T05:10:32;52.35;38.81;67.72;;
4048;Laerm;2038;51.728;6.674;2022-07-15T05:12:58;56.63;39.46;70.95;;
4048;Laerm;2038;51.728;6.674;2022-07-15T05:15:24;58.32;38.95;72.53;;
4048;Laerm;2038;51.728;6.674;2022-07-15T05:17:50;50.52;38.81;64.16;;
4048;Laerm;2038;51.728;6.674;2022-07-15T05:20:16;53.66;38.81;67.97;;
4048;Laerm;2038;51.728;6.674;2022-07-15T05:22:42;57.77;39.34;70.55;;
4048;Laerm;2038;51.728;6.674;2022-07-15T05:25:08;53.42;39.46;66.29;;
4048;Laerm;2038;51.728;6.674;2022-07-15T05:27:34;48.04;38.52;60.51;;
4048;Laerm;2038;51.728;6.674;2022-07-15T05:30:01;53.94;39.08;64.93;;
4048;Laerm;2038;51.728;6.674;2022-07-15T05:32:27;53.01;39.81;66.67;;
4048;Laerm;2038;51.728;6.674;2022-07-15T05:34:54;49.74;38.32;65.90;;
4048;Laerm;2038;51.728;6.674;2022-07-15T05:37:20;53.27;38.67;64.36;;
4048;Laerm;2038;51.728;6.674;2022-07-15T05:39:46;54.89;38.67;69.55;;
4048;Laerm;2038;51.728;6.674;2022-07-15T05:42:23;53.50;39.34;63.28;;
4048;Laerm;2038;51.728;6.674;2022-07-15T05:44:50;53.10;38.05;63.22;;
4048;Laerm;2038;51.728;6.674;2022-07-15T05:47:16;54.90;40.43;68.82;;
4048;Laerm;2038;51.728;6.674;2022-07-15T05:49:42;50.75;38.67;63.35;;
4048;Laerm;2038;51.728;6.674;2022-07-15T05:52:08;56.51;38.37;71.24;;
4048;Laerm;2038;51.728;6.674;2022-07-15T05:54:35;53.73;38.05;66.85;;
4048;Laerm;2038;51.728;6.674;2022-07-15T05:57:03;52.21;39.08;63.98;;
4048;Laerm;2038;51.728;6.674;2022-07-15T05:59:30;54.31;39.58;68.69;;
4048;Laerm;2038;51.728;6.674;2022-07-15T06:01:58;54.58;38.05;71.29;;
4048;Laerm;2038;51.728;6.674;2022-07-15T06:04:24;50.48;36.20;67.68;;
4048;Laerm;2038;51.728;6.674;2022-07-15T06:06:54;52.55;38.81;64.89;;
4048;Laerm;2038;51.728;6.674;2022-07-15T06:09:21;53.19;36.45;65.65;;
4048;Laerm;2038;51.728;6.674;2022-07-15T06:11:47;51.86;37.32;66.32;;
4048;Laerm;2038;51.728;6.674;2022-07-15T06:14:13;50.05;37.70;64.12;;
4048;Laerm;2038;51.728;6.674;2022-07-15T06:16:39;55.49;37.88;70.51;;
4048;Laerm;2038;51.728;6.674;2022-07-15T06:19:05;56.19;38.37;71.36;;
4048;Laerm;2038;51.728;6.674;2022-07-15T06:21:35;55.72;39.58;68.37;;
4048;Laerm;2038;51.728;6.674;2022-07-15T06:24:01;49.30;38.21;63.75;;
4048;Laerm;2038;51.728;6.674;2022-07-15T06:26:27;52.29;37.32;65.61;;
4048;Laerm;2038;51.728;6.674;2022-07-15T06:28:54;56.94;37.70;72.66;;
4048;Laerm;2038;51.728;6.674;2022-07-15T06:31:20;54.32;37.88;68.10;;
4048;Laerm;2038;51.728;6.674;2022-07-15T06:33:46;55.58;39.70;68.65;;
4048;Laerm;2038;51.728;6.674;2022-07-15T06:36:12;50.98;36.91;64.47;;
4048;Laerm;2038;51.728;6.674;2022-07-15T06:38:38;52.42;35.66;65.87;;
4048;Laerm;2038;51.728;6.674;2022-07-15T06:41:03;53.07;38.67;64.32;;
4048;Laerm;2038;51.728;6.674;2022-07-15T06:43:30;54.66;36.56;73.53;;
4048;Laerm;2038;51.728;6.674;2022-07-15T06:45:57;54.67;37.88;70.16;;
4048;Laerm;2038;51.728;6.674;2022-07-15T06:48:23;55.10;36.45;70.76;;
4048;Laerm;2038;51.728;6.674;2022-07-15T06:50:49;52.69;37.32;65.31;;
4048;Laerm;2038;51.728;6.674;2022-07-15T06:53:15;55.78;36.91;70.36;;
4048;Laerm;2038;51.728;6.674;2022-07-15T06:55:41;54.49;36.91;70.78;;
4048;Laerm;2038;51.728;6.674;2022-07-15T06:58:07;54.58;36.45;66.05;;
4048;Laerm;2038;51.728;6.674;2022-07-15T07:00:34;51.86;36.69;63.01;;
4048;Laerm;2038;51.728;6.674;2022-07-15T07:03:00;55.54;35.01;78.20;;
4048;Laerm;2038;51.728;6.674;2022-07-15T07:05:26;51.41;36.45;75.54;;
4048;Laerm;2038;51.728;6.674;2022-07-15T07:07:54;51.57;36.20;65.07;;
4048;Laerm;2038;51.728;6.674;2022-07-15T07:10:20;55.13;36.91;65.88;;
4048;Laerm;2038;51.728;6.674;2022-07-15T07:12:46;51.64;35.66;65.42;;
4048;Laerm;2038;51.728;6.674;2022-07-15T07:15:14;52.90;36.69;67.31;;
4048;Laerm;2038;51.728;6.674;2022-07-15T07:17:40;50.18;35.59;63.63;;
4048;Laerm;2038;51.728;6.674;2022-07-15T07:20:06;54.01;38.81;65.27;;
4048;Laerm;2038;51.728;6.674;2022-07-15T07:22:33;54.64;37.32;68.54;;
4048;Laerm;2038;51.728;6.674;2022-07-15T07:24:59;47.47;36.20;63.31;;
4048;Laerm;2038;51.728;6.674;2022-07-15T07:27:25;56.90;36.20;72.14;;
4048;Laerm;2038;51.728;6.674;2022-07-15T07:29:52;47.60;35.66;62.24;;
4048;Laerm;2038;51.728;6.674;2022-07-15T07:32:18;53.32;36.69;65.51;;
4048;Laerm;2038;51.728;6.674;2022-07-15T07:34:44;52.31;36.91;65.91;;
4048;Laerm;2038;51.728;6.674;2022-07-15T07:37:10;54.59;36.45;69.38;;
4048;Laerm;2038;51.728;6.674;2022-07-15T07:39:37;58.92;37.70;73.58;;
4048;Laerm;2038;51.728;6.674;2022-07-15T07:42:04;52.45;37.88;65.68;;
4048;Laerm;2038;51.728;6.674;2022-07-15T07:44:30;52.70;36.91;67.58;;
4048;Laerm;2038;51.728;6.674;2022-07-15T07:46:56;55.70;38.37;71.62;;
4048;Laerm;2038;51.728;6.674;2022-07-15T07:49:23;54.62;38.52;67.25;;
4048;Laerm;2038;51.728;6.674;2022-07-15T07:51:50;52.17;37.35;62.40;;
4048;Laerm;2038;51.728;6.674;2022-07-15T07:54:16;52.49;36.45;65.75;;
4048;Laerm;2038;51.728;6.674;2022-07-15T07:56:43;53.75;36.91;64.99;;
4048;Laerm;2038;51.728;6.674;2022-07-15T07:59:11;51.71;37.70;64.34;;
4048;Laerm;2038;51.728;6.674;2022-07-15T08:01:37;52.86;36.20;67.13;;
4048;Laerm;2038;51.728;6.674;2022-07-15T08:04:04;52.76;37.12;67.95;;
4048;Laerm;2038;51.728;6.674;2022-07-15T08:06:30;54.19;37.32;66.64;;
4048;Laerm;2038;51.728;6.674;2022-07-15T08:08:57;50.55;36.69;61.66;;
4048;Laerm;2038;51.728;6.674;2022-07-15T08:11:23;52.19;35.94;64.07;;
4048;Laerm;2038;51.728;6.674;2022-07-15T08:13:49;58.44;38.05;71.14;;
4048;Laerm;2038;51.728;6.674;2022-07-15T08:16:15;55.43;37.70;70.91;;
4048;Laerm;2038;51.728;6.674;2022-07-15T08:18:42;51.98;36.91;62.19;;
4048;Laerm;2038;51.728;6.674;2022-07-15T08:21:09;54.02;37.88;69.39;;
4048;Laerm;2038;51.728;6.674;2022-07-15T08:23:35;51.29;37.17;66.53;;
4048;Laerm;2038;51.728;6.674;2022-07-15T08:26:02;55.71;37.88;69.76;;
4048;Laerm;2038;51.728;6.674;2022-07-15T08:28:30;55.94;37.52;70.01;;
4048;Laerm;2038;51.728;6.674;2022-07-15T08:30:56;53.50;39.21;68.81;;
4048;Laerm;2038;51.728;6.674;2022-07-15T08:33:22;50.80;37.52;65.02;;
4048;Laerm;2038;51.728;6.674;2022-07-15T08:35:49;56.16;39.58;71.67;;
4048;Laerm;2038;51.728;6.674;2022-07-15T08:38:15;53.41;38.21;69.30;;
4048;Laerm;2038;51.728;6.674;2022-07-15T08:40:41;52.02;38.81;66.43;;
4048;Laerm;2038;51.728;6.674;2022-07-15T08:43:11;53.89;37.70;68.09;;
4048;Laerm;2038;51.728;6.674;2022-07-15T08:45:40;54.71;38.81;68.27;;
4048;Laerm;2038;51.728;6.674;2022-07-15T08:48:09;54.43;39.34;66.17;;
4048;Laerm;2038;51.728;6.674;2022-07-15T08:50:37;53.77;37.70;68.43;;
4048;Laerm;2038;51.728;6.674;2022-07-15T08:53:04;57.94;37.88;73.61;;
4048;Laerm;2038;51.728;6.674;2022-07-15T08:55:31;56.40;40.43;72.88;;
4048;Laerm;2038;51.728;6.674;2022-07-15T08:57:57;50.74;39.08;63.26;;
4048;Laerm;2038;51.728;6.674;2022-07-15T09:00:26;57.64;38.21;76.39;;
4048;Laerm;2038;51.728;6.674;2022-07-15T09:03:01;55.74;39.08;67.55;;
4048;Laerm;2038;51.728;6.674;2022-07-15T09:05:32;58.96;39.92;72.59;;
4048;Laerm;2038;51.728;6.674;2022-07-15T09:08:16;55.20;39.34;65.87;;
4048;Laerm;2038;51.728;6.674;2022-07-15T09:10:54;53.48;40.53;63.62;;
4048;Laerm;2038;51.728;6.674;2022-07-15T09:13:38;50.47;39.92;61.83;;
4048;Laerm;2038;51.728;6.674;2022-07-15T09:16:09;54.79;38.21;69.70;;
4048;Laerm;2038;51.728;6.674;2022-07-15T09:18:40;55.73;39.81;68.44;;
4048;Laerm;2038;51.728;6.674;2022-07-15T09:21:26;56.82;38.21;71.03;;
4048;Laerm;2038;51.728;6.674;2022-07-15T09:23:54;54.38;39.08;65.70;;
4048;Laerm;2038;51.728;6.674;2022-07-15T09:26:34;52.61;38.52;63.69;;
4048;Laerm;2038;51.728;6.674;2022-07-15T09:29:04;52.26;38.81;63.90;;
4048;Laerm;2038;51.728;6.674;2022-07-15T09:31:57;56.10;38.81;72.36;;
4048;Laerm;2038;51.728;6.674;2022-07-15T09:35:04;51.42;37.88;63.79;;
4048;Laerm;2038;51.728;6.674;2022-07-15T09:37:31;52.64;38.67;61.93;;
4048;Laerm;2038;51.728;6.674;2022-07-15T09:39:58;58.78;39.70;71.53;;
4048;Laerm;2038;51.728;6.674;2022-07-15T09:42:24;50.41;37.52;65.57;;
4048;Laerm;2038;51.728;6.674;2022-07-15T09:44:51;52.81;38.81;66.14;;
4048;Laerm;2038;51.728;6.674;2022-07-15T09:47:19;56.38;41.75;70.59;;
4048;Laerm;2038;51.728;6.674;2022-07-15T09:49:46;51.62;38.95;65.11;;
4048;Laerm;2038;51.728;6.674;2022-07-15T09:52:14;52.42;36.98;64.03;;
4048;Laerm;2038;51.728;6.674;2022-07-15T09:54:43;55.43;38.81;69.13;;
4048;Laerm;2038;51.728;6.674;2022-07-15T09:57:14;52.94;36.91;67.48;;
4048;Laerm;2038;51.728;6.674;2022-07-15T09:59:43;55.43;37.52;69.24;;
4048;Laerm;2038;51.728;6.674;2022-07-15T10:02:11;57.76;40.13;72.45;;
4048;Laerm;2038;51.728;6.674;2022-07-15T10:04:38;51.82;38.37;65.43;;
4048;Laerm;2038;51.728;6.674;2022-07-15T10:07:06;60.63;38.95;76.90;;
4048;Laerm;2038;51.728;6.674;2022-07-15T10:09:35;57.84;40.23;76.15;;
4048;Laerm;2038;51.728;6.674;2022-07-15T10:12:25;57.89;39.46;71.08;;
4048;Laerm;2038;51.728;6.674;2022-07-15T10:15:10;49.27;36.91;65.30;;
4048;Laerm;2038;51.728;6.674;2022-07-15T10:18:21;53.72;36.69;70.91;;
4048;Laerm;2038;51.728;6.674;2022-07-15T10:21:06;53.14;36.20;70.16;;
4048;Laerm;2038;51.728;6.674;2022-07-15T10:27:48;52.60;36.91;66.33;;
4048;Laerm;2038;51.728;6.674;2022-07-15T10:30:12;55.60;37.88;71.56;;
4048;Laerm;2038;51.728;6.674;2022-07-15T10:38:28;58.15;41.61;70.71;;
4048;Laerm;2038;51.728;6.674;2022-07-15T10:41:14;53.51;41.46;68.08;;
4048;Laerm;2038;51.728;6.674;2022-07-15T10:43:54;52.05;38.67;66.77;;
4048;Laerm;2038;51.728;6.674;2022-07-15T10:46:26;56.62;39.92;71.94;;
4048;Laerm;2038;51.728;6.674;2022-07-15T10:54:10;49.81;37.70;63.17;;
4048;Laerm;2038;51.728;6.674;2022-07-15T10:56:43;50.84;38.05;65.84;;
4048;Laerm;2038;51.728;6.674;2022-07-15T10:59:18;52.92;38.87;65.66;;
4048;Laerm;2038;51.728;6.674;2022-07-15T11:04:33;48.47;38.52;65.41;;
4048;Laerm;2038;51.728;6.674;2022-07-15T11:17:40;58.31;38.21;74.86;;
4048;Laerm;2038;51.728;6.674;2022-07-15T11:20:17;50.72;36.91;63.53;;
4048;Laerm;2038;51.728;6.674;2022-07-15T11:22:49;49.06;37.52;62.69;;
4048;Laerm;2038;51.728;6.674;2022-07-15T11:25:40;53.29;37.52;68.08;;
4048;Laerm;2038;51.728;6.674;2022-07-15T11:28:14;58.36;37.70;74.26;;
4048;Laerm;2038;51.728;6.674;2022-07-15T11:30:48;54.17;38.21;68.73;;
4048;Laerm;2038;51.728;6.674;2022-07-15T11:33:20;52.23;39.58;63.65;;
4048;Laerm;2038;51.728;6.674;2022-07-15T11:35:55;54.08;39.58;66.04;;
4048;Laerm;2038;51.728;6.674;2022-07-15T11:38:27;52.37;38.37;65.52;;
4048;Laerm;2038;51.728;6.674;2022-07-15T11:41:01;51.92;36.69;66.68;;
4048;Laerm;2038;51.728;6.674;2022-07-15T11:44:02;48.58;35.94;65.28;;
4048;Laerm;2038;51.728;6.674;2022-07-15T11:46:49;54.64;38.52;66.97;;
4048;Laerm;2038;51.728;6.674;2022-07-15T11:49:34;53.93;38.67;67.71;;
4048;Laerm;2038;51.728;6.674;2022-07-15T11:52:03;53.44;39.21;65.29;;
4048;Laerm;2038;51.728;6.674;2022-07-15T11:54:30;53.40;39.21;67.19;;
4048;Laerm;2038;51.728;6.674;2022-07-15T11:57:06;51.48;38.37;62.90;;
4048;Laerm;2038;51.728;6.674;2022-07-15T11:59:34;55.11;38.37;69.55;;
4048;Laerm;2038;51.728;6.674;2022-07-15T12:02:09;50.51;37.70;61.95;;
4048;Laerm;2038;51.728;6.674;2022-07-15T12:04:38;53.55;37.12;69.40;;
4048;Laerm;2038;51.728;6.674;2022-07-15T12:07:06;51.57;39.08;61.91;;
4048;Laerm;2038;51.728;6.674;2022-07-15T12:09:44;54.35;37.52;72.23;;
4048;Laerm;2038;51.728;6.674;2022-07-15T12:12:11;58.65;40.43;74.75;;
4048;Laerm;2038;51.728;6.674;2022-07-15T12:14:38;53.82;39.92;62.69;;
4048;Laerm;2038;51.728;6.674;2022-07-15T12:17:06;57.42;38.95;76.54;;
4048;Laerm;2038;51.728;6.674;2022-07-15T12:19:33;55.08;40.23;69.40;;
4048;Laerm;2038;51.728;6.674;2022-07-15T12:22:09;49.87;39.08;62.10;;
4048;Laerm;2038;51.728;6.674;2022-07-15T12:24:43;53.68;40.62;68.81;;
4048;Laerm;2038;51.728;6.674;2022-07-15T12:27:13;54.59;39.58;69.46;;
4048;Laerm;2038;51.728;6.674;2022-07-15T12:29:41;51.87;38.52;66.51;;
4048;Laerm;2038;51.728;6.674;2022-07-15T12:32:12;53.27;37.12;68.07;;
4048;Laerm;2038;51.728;6.674;2022-07-15T12:34:59;53.16;37.12;66.67;;
4048;Laerm;2038;51.728;6.674;2022-07-15T12:37:47;52.52;39.08;63.17;;
4048;Laerm;2038;51.728;6.674;2022-07-15T12:40:23;55.14;38.21;69.39;;
4048;Laerm;2038;51.728;6.674;2022-07-15T12:42:52;50.39;37.12;61.64;;
4048;Laerm;2038;51.728;6.674;2022-07-15T12:45:25;53.14;40.13;66.02;;
4048;Laerm;2038;51.728;6.674;2022-07-15T12:48:09;53.33;39.46;63.91;;
4048;Laerm;2038;51.728;6.674;2022-07-15T12:53:11;51.82;39.21;60.99;;
4048;Laerm;2038;51.728;6.674;2022-07-15T12:55:47;60.98;38.67;74.99;;
4048;Laerm;2038;51.728;6.674;2022-07-15T12:58:22;52.20;39.58;62.12;;
4048;Laerm;2038;51.728;6.674;2022-07-15T13:00:49;53.29;39.21;69.98;;
4048;Laerm;2038;51.728;6.674;2022-07-15T13:03:21;57.18;39.81;72.04;;
4048;Laerm;2038;51.728;6.674;2022-07-15T13:05:52;53.64;37.52;73.63;;
4048;Laerm;2038;51.728;6.674;2022-07-15T13:08:35;61.84;40.63;74.99;;
4048;Laerm;2038;51.728;6.674;2022-07-15T13:11:05;55.07;37.70;70.50;;
4048;Laerm;2038;51.728;6.674;2022-07-15T13:13:36;54.30;37.87;65.31;;
4048;Laerm;2038;51.728;6.674;2022-07-15T13:16:04;53.47;37.70;67.97;;
4048;Laerm;2038;51.728;6.674;2022-07-15T13:18:33;54.84;38.81;72.55;;
4048;Laerm;2038;51.728;6.674;2022-07-15T13:21:00;52.26;38.21;67.19;;
4048;Laerm;2038;51.728;6.674;2022-07-15T13:23:26;52.89;38.21;63.72;;
4048;Laerm;2038;51.728;6.674;2022-07-15T13:25:53;54.34;37.88;68.63;;
4048;Laerm;2038;51.728;6.674;2022-07-15T13:28:21;53.51;38.37;66.35;;
4048;Laerm;2038;51.728;6.674;2022-07-15T13:30:48;51.95;40.23;63.04;;
4048;Laerm;2038;51.728;6.674;2022-07-15T13:33:16;57.39;39.08;73.56;;
4048;Laerm;2038;51.728;6.674;2022-07-15T13:35:42;55.07;37.70;65.13;;
4048;Laerm;2038;51.728;6.674;2022-07-15T13:38:08;55.47;38.05;65.53;;
4048;Laerm;2038;51.728;6.674;2022-07-15T13:40:35;52.71;39.21;65.68;;
4048;Laerm;2038;51.728;6.674;2022-07-15T13:43:01;59.69;41.30;73.75;;
4048;Laerm;2038;51.728;6.674;2022-07-15T13:45:27;52.40;39.92;61.65;;
4048;Laerm;2038;51.728;6.674;2022-07-15T13:47:54;54.02;40.33;66.07;;
4048;Laerm;2038;51.728;6.674;2022-07-15T13:50:20;54.57;40.23;63.76;;
4048;Laerm;2038;51.728;6.674;2022-07-15T13:53:05;53.67;40.71;65.26;;
4048;Laerm;2038;51.728;6.674;2022-07-15T13:55:31;54.06;39.81;66.78;;
4048;Laerm;2038;51.728;6.674;2022-07-15T13:57:57;56.49;38.05;74.40;;
4048;Laerm;2038;51.728;6.674;2022-07-15T14:00:25;54.64;39.21;64.66;;
4048;Laerm;2038;51.728;6.674;2022-07-15T14:02:54;51.56;38.81;63.77;;
4048;Laerm;2038;51.728;6.674;2022-07-15T14:05:21;54.56;39.08;65.97;;
4048;Laerm;2038;51.728;6.674;2022-07-15T14:07:48;55.22;40.43;67.53;;
4048;Laerm;2038;51.728;6.674;2022-07-15T14:10:14;54.29;39.70;66.03;;
4048;Laerm;2038;51.728;6.674;2022-07-15T14:12:42;52.83;38.21;63.89;;
4048;Laerm;2038;51.728;6.674;2022-07-15T14:15:09;54.91;38.95;65.03;;
4048;Laerm;2038;51.728;6.674;2022-07-15T14:17:35;51.20;36.45;62.03;;
4048;Laerm;2038;51.728;6.674;2022-07-15T14:20:02;53.79;39.58;64.68;;
4048;Laerm;2038;51.728;6.674;2022-07-15T14:22:29;55.20;38.37;68.57;;
4048;Laerm;2038;51.728;6.674;2022-07-15T14:24:57;57.39;37.52;72.90;;
4048;Laerm;2038;51.728;6.674;2022-07-15T14:27:23;54.26;38.52;65.54;;
4048;Laerm;2038;51.728;6.674;2022-07-15T14:29:49;52.23;38.67;61.71;;
4048;Laerm;2038;51.728;6.674;2022-07-15T14:32:15;52.48;38.05;64.97;;
4048;Laerm;2038;51.728;6.674;2022-07-15T14:34:42;51.02;38.81;62.66;;
4048;Laerm;2038;51.728;6.674;2022-07-15T14:37:08;56.42;37.70;76.19;;
4048;Laerm;2038;51.728;6.674;2022-07-15T14:39:34;59.43;39.08;73.02;;
4048;Laerm;2038;51.728;6.674;2022-07-15T14:42:01;53.50;41.14;65.43;;
4048;Laerm;2038;51.728;6.674;2022-07-15T14:44:27;52.90;40.89;63.44;;
4048;Laerm;2038;51.728;6.674;2022-07-15T14:46:53;54.07;39.08;68.15;;
4048;Laerm;2038;51.728;6.674;2022-07-15T14:49:19;57.95;39.70;74.76;;